sensor_id;sensor_type;location;lat;lon;timestamp;pressure;altitude;pressure_sealevel;temperature;humidity
55656;BME280;41530;52.382;5.270;2023-04-05T00:01:11;102793.44;;;17.49;41.76
55656;BME280;41530;52.382;5.270;2023-04-05T00:03:39;102791.72;;;17.48;41.75
55656;BME280;41530;52.382;5.270;2023-04-05T00:06:06;102798.75;;;17.49;41.74
55656;BME280;41530;52.382;5.270;2023-04-05T00:08:33;102790.88;;;17.47;41.68
55656;BME280;41530;52.382;5.270;2023-04-05T00:10:59;102784.19;;;17.41;41.65
55656;BME280;41530;52.382;5.270;2023-04-05T00:13:26;102776.94;;;17.43;41.62
55656;BME280;41530;52.382;5.270;2023-04-05T00:15:53;102783.31;;;17.41;41.81
55656;BME280;41530;52.382;5.270;2023-04-05T00:18:24;102773.63;;;17.40;41.47
55656;BME280;41530;52.382;5.270;2023-04-05T00:20:51;102782.38;;;17.42;41.68
55656;BME280;41530;52.382;5.270;2023-04-05T00:23:18;102774.59;;;17.39;41.79
55656;BME280;41530;52.382;5.270;2023-04-05T00:25:46;102754.88;;;17.29;41.71
55656;BME280;41530;52.382;5.270;2023-04-05T00:28:13;102770.22;;;17.38;41.50
55656;BME280;41530;52.382;5.270;2023-04-05T00:30:40;102765.09;;;17.35;41.83
55656;BME280;41530;52.382;5.270;2023-04-05T00:33:07;102772.13;;;17.36;41.65
55656;BME280;41530;52.382;5.270;2023-04-05T00:35:34;102769.66;;;17.33;41.29
55656;BME280;41530;52.382;5.270;2023-04-05T00:38:00;102765.19;;;17.33;41.71
55656;BME280;41530;52.382;5.270;2023-04-05T00:40:27;102746.56;;;17.21;41.58
55656;BME280;41530;52.382;5.270;2023-04-05T00:42:53;102770.63;;;17.32;41.53
55656;BME280;41530;52.382;5.270;2023-04-05T00:45:20;102768.09;;;17.30;41.70
55656;BME280;41530;52.382;5.270;2023-04-05T00:47:47;102768.09;;;17.30;41.37
55656;BME280;41530;52.382;5.270;2023-04-05T00:50:14;102771.59;;;17.31;41.56
55656;BME280;41530;52.382;5.270;2023-04-05T00:52:42;102770.00;;;17.28;41.70
55656;BME280;41530;52.382;5.270;2023-04-05T00:55:09;102765.63;;;17.27;41.51
55656;BME280;41530;52.382;5.270;2023-04-05T00:57:37;102755.28;;;17.23;41.54
55656;BME280;41530;52.382;5.270;2023-04-05T01:00:05;102757.84;;;17.24;41.43
55656;BME280;41530;52.382;5.270;2023-04-05T01:02:51;102759.66;;;17.24;41.09
55656;BME280;41530;52.382;5.270;2023-04-05T01:05:27;102753.59;;;17.22;41.39
55656;BME280;41530;52.382;5.270;2023-04-05T01:08:11;102749.22;;;17.21;41.00
55656;BME280;41530;52.382;5.270;2023-04-05T01:10:45;102756.34;;;17.20;41.37
55656;BME280;41530;52.382;5.270;2023-04-05T01:13:15;102751.97;;;17.19;41.52
55656;BME280;41530;52.382;5.270;2023-04-05T01:15:42;102749.44;;;17.18;41.37
55656;BME280;41530;52.382;5.270;2023-04-05T01:18:09;102745.94;;;17.17;41.61
55656;BME280;41530;52.382;5.270;2023-04-05T01:20:41;102746.13;;;17.14;41.33
55656;BME280;41530;52.382;5.270;2023-04-05T01:31:52;102730.47;;;17.09;41.26
55656;BME280;41530;52.382;5.270;2023-04-05T01:34:49;102730.66;;;17.06;40.98
55656;BME280;41530;52.382;5.270;2023-04-05T01:37:19;102733.44;;;17.05;41.36
55656;BME280;41530;52.382;5.270;2023-04-05T01:39:49;102728.25;;;17.03;41.47
55656;BME280;41530;52.382;5.270;2023-04-05T01:42:22;102725.69;;;17.02;41.33
55656;BME280;41530;52.382;5.270;2023-04-05T01:44:55;102728.75;;;16.96;41.32
55656;BME280;41530;52.382;5.270;2023-04-05T01:47:21;102721.72;;;16.95;41.58
55656;BME280;41530;52.382;5.270;2023-04-05T01:49:48;102722.56;;;16.95;41.44
55656;BME280;41530;52.382;5.270;2023-04-05T01:52:15;102719.91;;;16.95;41.67
55656;BME280;41530;52.382;5.270;2023-04-05T01:54:42;102713.09;;;16.91;41.51
55656;BME280;41530;52.382;5.270;2023-04-05T01:57:08;102717.34;;;16.94;41.50
55656;BME280;41530;52.382;5.270;2023-04-05T01:59:35;102712.34;;;16.89;41.67
55656;BME280;41530;52.382;5.270;2023-04-05T02:02:01;102706.28;;;16.87;41.54
55656;BME280;41530;52.382;5.270;2023-04-05T02:04:28;102702.97;;;16.84;41.50
55656;BME280;41530;52.382;5.270;2023-04-05T02:06:54;102701.16;;;16.84;41.48
55656;BME280;41530;52.382;5.270;2023-04-05T02:09:21;102701.06;;;16.86;41.28
55656;BME280;41530;52.382;5.270;2023-04-05T02:11:48;102696.03;;;16.81;41.39
55656;BME280;41530;52.382;5.270;2023-04-05T02:14:14;102702.97;;;16.84;41.56
55656;BME280;41530;52.382;5.270;2023-04-05T02:16:41;102700.59;;;16.79;41.38
55656;BME280;41530;52.382;5.270;2023-04-05T02:19:09;102697.84;;;16.81;41.63
55656;BME280;41530;52.382;5.270;2023-04-05T02:21:36;102690.94;;;16.78;41.42
55656;BME280;41530;52.382;5.270;2023-04-05T02:24:03;102691.16;;;16.75;41.47
55656;BME280;41530;52.382;5.270;2023-04-05T02:26:29;102684.13;;;16.74;41.37
55656;BME280;41530;52.382;5.270;2023-04-05T02:28:56;102691.16;;;16.75;41.45
55656;BME280;41530;52.382;5.270;2023-04-05T02:31:23;102685.09;;;16.73;41.36
55656;BME280;41530;52.382;5.270;2023-04-05T02:33:49;102676.34;;;16.71;41.56
55656;BME280;41530;52.382;5.270;2023-04-05T02:36:16;102690.50;;;16.71;41.43
55656;BME280;41530;52.382;5.270;2023-04-05T02:38:43;102672.94;;;16.69;41.48
55656;BME280;41530;52.382;5.270;2023-04-05T02:41:10;102676.56;;;16.68;41.28
55656;BME280;41530;52.382;5.270;2023-04-05T02:43:37;102676.56;;;16.68;41.55
55656;BME280;41530;52.382;5.270;2023-04-05T02:46:04;102680.06;;;16.68;41.49
55656;BME280;41530;52.382;5.270;2023-04-05T02:48:31;102677.59;;;16.65;41.34
55656;BME280;41530;52.382;5.270;2023-04-05T02:50:58;102670.72;;;16.63;41.36
55656;BME280;41530;52.382;5.270;2023-04-05T02:53:24;102671.63;;;16.62;41.32
55656;BME280;41530;52.382;5.270;2023-04-05T02:55:55;102669.06;;;16.60;40.95
55656;BME280;41530;52.382;5.270;2023-04-05T02:58:23;102667.38;;;16.59;41.46
55656;BME280;41530;52.382;5.270;2023-04-05T03:00:50;102670.13;;;16.58;41.53
55656;BME280;41530;52.382;5.270;2023-04-05T03:03:20;102670.03;;;16.59;41.44
55656;BME280;41530;52.382;5.270;2023-04-05T03:05:48;102660.34;;;16.58;41.49
55656;BME280;41530;52.382;5.270;2023-04-05T03:08:22;102666.81;;;16.54;41.35
55656;BME280;41530;52.382;5.270;2023-04-05T03:10:53;102660.44;;;16.57;40.95
55656;BME280;41530;52.382;5.270;2023-04-05T03:13:19;102648.31;;;16.53;41.47
55656;BME280;41530;52.382;5.270;2023-04-05T03:15:46;102655.31;;;16.54;41.34
55656;BME280;41530;52.382;5.270;2023-04-05T03:18:12;102654.56;;;16.52;41.49
55656;BME280;41530;52.382;5.270;2023-04-05T03:20:39;102647.88;;;16.46;41.28
55656;BME280;41530;52.382;5.270;2023-04-05T03:23:06;102646.72;;;16.50;41.39
55656;BME280;41530;52.382;5.270;2023-04-05T03:25:36;102648.63;;;16.48;41.19
55656;BME280;41530;52.382;5.270;2023-04-05T03:28:04;102653.09;;;16.48;41.28
55656;BME280;41530;52.382;5.270;2023-04-05T03:30:31;102645.31;;;16.45;40.98
55656;BME280;41530;52.382;5.270;2023-04-05T03:32:59;102647.88;;;16.46;41.36
55656;BME280;41530;52.382;5.270;2023-04-05T03:35:27;102644.47;;;16.44;41.44
55656;BME280;41530;52.382;5.270;2023-04-05T03:37:55;102637.53;;;16.42;41.34
55656;BME280;41530;52.382;5.270;2023-04-05T03:40:22;102637.44;;;16.43;41.24
55656;BME280;41530;52.382;5.270;2023-04-05T03:42:49;102642.84;;;16.42;41.25
55656;BME280;41530;52.382;5.270;2023-04-05T03:45:16;102642.09;;;16.39;41.39
55656;BME280;41530;52.382;5.270;2023-04-05T03:47:49;102639.53;;;16.38;41.37
55656;BME280;41530;52.382;5.270;2023-04-05T03:50:16;102639.66;;;16.36;41.23
55656;BME280;41530;52.382;5.270;2023-04-05T03:52:43;102636.16;;;16.36;41.08
55656;BME280;41530;52.382;5.270;2023-04-05T03:55:10;102642.31;;;16.36;41.07
55656;BME280;41530;52.382;5.270;2023-04-05T03:57:39;102644.22;;;16.34;41.04
55656;BME280;41530;52.382;5.270;2023-04-05T04:00:06;102645.16;;;16.33;41.21
55656;BME280;41530;52.382;5.270;2023-04-05T04:02:45;102644.41;;;16.31;41.16
55656;BME280;41530;52.382;5.270;2023-04-05T04:05:13;102633.88;;;16.30;41.14
55656;BME280;41530;52.382;5.270;2023-04-05T04:07:40;102640.16;;;16.29;41.05
55656;BME280;41530;52.382;5.270;2023-04-05T04:10:08;102641.00;;;16.29;41.01
55656;BME280;41530;52.382;5.270;2023-04-05T04:12:36;102641.09;;;16.28;40.83
55656;BME280;41530;52.382;5.270;2023-04-05T04:15:03;102628.63;;;16.16;41.25
55656;BME280;41530;52.382;5.270;2023-04-05T04:17:32;102643.94;;;16.25;40.99
55656;BME280;41530;52.382;5.270;2023-04-05T04:19:59;102638.84;;;16.22;41.04
55656;BME280;41530;52.382;5.270;2023-04-05T04:22:26;102641.59;;;16.20;41.17
55656;BME280;41530;52.382;5.270;2023-04-05T04:24:58;102647.69;;;16.22;41.03
55656;BME280;41530;52.382;5.270;2023-04-05T04:27:30;102643.31;;;16.21;41.01
55656;BME280;41530;52.382;5.270;2023-04-05T04:29:57;102646.06;;;16.20;41.31
55656;BME280;41530;52.382;5.270;2023-04-05T04:32:30;102641.78;;;16.17;41.02
55656;BME280;41530;52.382;5.270;2023-04-05T04:35:22;102640.09;;;16.16;41.07
55656;BME280;41530;52.382;5.270;2023-04-05T04:37:58;102636.59;;;16.16;40.95
55656;BME280;41530;52.382;5.270;2023-04-05T04:40:35;102642.09;;;16.13;40.68
55656;BME280;41530;52.382;5.270;2023-04-05T04:43:10;102635.19;;;16.10;40.81
55656;BME280;41530;52.382;5.270;2023-04-05T04:45:43;102638.69;;;16.11;41.03
55656;BME280;41530;52.382;5.270;2023-04-05T04:48:13;102632.72;;;16.07;41.21
55656;BME280;41530;52.382;5.270;2023-04-05T04:50:43;102632.72;;;16.07;41.06
55656;BME280;41530;52.382;5.270;2023-04-05T04:53:10;102636.16;;;16.09;40.91
55656;BME280;41530;52.382;5.270;2023-04-05T04:55:39;102633.69;;;16.06;41.22
55656;BME280;41530;52.382;5.270;2023-04-05T04:58:08;102637.19;;;16.07;40.92
55656;BME280;41530;52.382;5.270;2023-04-05T05:00:41;102626.66;;;16.05;40.80
55656;BME280;41530;52.382;5.270;2023-04-05T05:03:10;102626.84;;;16.02;41.17
55656;BME280;41530;52.382;5.270;2023-04-05T05:05:48;102620.50;;;16.04;41.09
55656;BME280;41530;52.382;5.270;2023-04-05T05:08:15;102626.47;;;16.08;41.27
55656;BME280;41530;52.382;5.270;2023-04-05T05:10:50;102624.44;;;16.12;41.36
55656;BME280;41530;52.382;5.270;2023-04-05T05:13:17;102625.31;;;16.12;41.26
55656;BME280;41530;52.382;5.270;2023-04-05T05:15:44;102620.13;;;16.11;41.19
55656;BME280;41530;52.382;5.270;2023-04-05T05:18:12;102618.50;;;16.08;40.99
55656;BME280;41530;52.382;5.270;2023-04-05T05:20:38;102621.34;;;16.05;40.85
55656;BME280;41530;52.382;5.270;2023-04-05T05:23:05;102624.94;;;16.04;40.98
55656;BME280;41530;52.382;5.270;2023-04-05T05:25:32;102624.38;;;15.99;40.68
55656;BME280;41530;52.382;5.270;2023-04-05T05:27:58;102630.56;;;15.99;40.68
55656;BME280;41530;52.382;5.270;2023-04-05T05:30:25;102626.31;;;15.97;40.41
55656;BME280;41530;52.382;5.270;2023-04-05T05:32:52;102628.13;;;15.96;40.62
55656;BME280;41530;52.382;5.270;2023-04-05T05:35:19;102620.44;;;15.92;40.63
55656;BME280;41530;52.382;5.270;2023-04-05T05:37:45;102627.44;;;15.93;40.12
55656;BME280;41530;52.382;5.270;2023-04-05T05:40:12;102621.28;;;15.92;40.11
55656;BME280;41530;52.382;5.270;2023-04-05T05:42:39;102623.00;;;15.93;40.20
55656;BME280;41530;52.382;5.270;2023-04-05T05:45:06;102634.16;;;15.98;40.14
55656;BME280;41530;52.382;5.270;2023-04-05T05:47:33;102633.09;;;16.01;40.47
55656;BME280;41530;52.382;5.270;2023-04-05T05:50:00;102632.06;;;16.03;40.53
55656;BME280;41530;52.382;5.270;2023-04-05T05:52:27;102617.94;;;16.03;40.53
55656;BME280;41530;52.382;5.270;2023-04-05T05:54:53;102627.31;;;16.09;40.62
55656;BME280;41530;52.382;5.270;2023-04-05T05:57:20;102632.41;;;16.12;40.46
55656;BME280;41530;52.382;5.270;2023-04-05T05:59:46;102636.59;;;16.16;40.50
55656;BME280;41530;52.382;5.270;2023-04-05T06:02:13;102637.34;;;16.18;40.40
55656;BME280;41530;52.382;5.270;2023-04-05T06:04:40;102629.28;;;16.19;40.23
55656;BME280;41530;52.382;5.270;2023-04-05T06:07:07;102629.94;;;16.23;40.34
55656;BME280;41530;52.382;5.270;2023-04-05T06:09:34;102623.03;;;16.20;40.44
55656;BME280;41530;52.382;5.270;2023-04-05T06:12:00;102635.78;;;16.28;40.34
55656;BME280;41530;52.382;5.270;2023-04-05T06:14:28;102630.56;;;16.26;40.29
55656;BME280;41530;52.382;5.270;2023-04-05T06:16:55;102640.81;;;16.32;40.25
55656;BME280;41530;52.382;5.270;2023-04-05T06:19:22;102639.84;;;16.33;40.40
55656;BME280;41530;52.382;5.270;2023-04-05T06:21:48;102629.13;;;16.35;40.22
55656;BME280;41530;52.382;5.270;2023-04-05T06:24:15;102627.22;;;16.37;39.97
55656;BME280;41530;52.382;5.270;2023-04-05T06:26:41;102629.66;;;16.40;40.24
55656;BME280;41530;52.382;5.270;2023-04-05T06:29:08;102629.47;;;16.43;39.85
55656;BME280;41530;52.382;5.270;2023-04-05T06:31:36;102636.19;;;16.49;40.12
55656;BME280;41530;52.382;5.270;2023-04-05T06:34:03;102633.31;;;16.52;40.21
55656;BME280;41530;52.382;5.270;2023-04-05T06:36:30;102634.06;;;16.54;40.17
55656;BME280;41530;52.382;5.270;2023-04-05T06:38:57;102633.78;;;16.58;40.02
55656;BME280;41530;52.382;5.270;2023-04-05T06:41:25;102621.13;;;16.62;39.76
55656;BME280;41530;52.382;5.270;2023-04-05T06:43:53;102627.97;;;16.66;39.82
55656;BME280;41530;52.382;5.270;2023-04-05T06:46:20;102625.22;;;16.67;39.66
55656;BME280;41530;52.382;5.270;2023-04-05T06:48:47;102623.19;;;16.71;39.64
55656;BME280;41530;52.382;5.270;2023-04-05T06:51:15;102620.53;;;16.71;39.62
55656;BME280;41530;52.382;5.270;2023-04-05T06:53:41;102621.94;;;16.77;39.38
55656;BME280;41530;52.382;5.270;2023-04-05T06:56:08;102618.97;;;16.81;39.38
55656;BME280;41530;52.382;5.270;2023-04-05T06:58:35;102628.44;;;16.85;39.30
55656;BME280;41530;52.382;5.270;2023-04-05T07:01:02;102620.47;;;16.85;39.23
55656;BME280;41530;52.382;5.270;2023-04-05T07:03:28;102627.19;;;16.91;39.10
55656;BME280;41530;52.382;5.270;2023-04-05T07:05:57;102629.50;;;16.95;39.09
55656;BME280;41530;52.382;5.270;2023-04-05T07:08:26;102627.59;;;16.97;39.30
55656;BME280;41530;52.382;5.270;2023-04-05T07:10:53;102623.78;;;17.01;39.18
55656;BME280;41530;52.382;5.270;2023-04-05T07:13:21;102631.66;;;17.03;38.66
55656;BME280;41530;52.382;5.270;2023-04-05T07:15:48;102621.88;;;17.03;38.90
55656;BME280;41530;52.382;5.270;2023-04-05T07:18:15;102624.63;;;17.02;38.73
55656;BME280;41530;52.382;5.270;2023-04-05T07:20:45;102631.31;;;17.07;38.87
55656;BME280;41530;52.382;5.270;2023-04-05T07:23:12;102628.75;;;17.06;38.86
55656;BME280;41530;52.382;5.270;2023-04-05T07:25:39;102624.09;;;17.09;39.23
55656;BME280;41530;52.382;5.270;2023-04-05T07:28:06;102629.88;;;17.16;39.70
55656;BME280;41530;52.382;5.270;2023-04-05T07:30:33;102628.56;;;17.22;39.51
55656;BME280;41530;52.382;5.270;2023-04-05T07:32:59;102619.22;;;17.29;39.47
55656;BME280;41530;52.382;5.270;2023-04-05T07:35:26;102616.31;;;17.32;39.19
55656;BME280;41530;52.382;5.270;2023-04-05T07:37:54;102624.84;;;17.37;39.23
55656;BME280;41530;52.382;5.270;2023-04-05T07:40:21;102616.00;;;17.36;39.42
55656;BME280;41530;52.382;5.270;2023-04-05T07:42:47;102614.31;;;17.35;39.02
55656;BME280;41530;52.382;5.270;2023-04-05T07:45:14;102611.75;;;17.34;39.15
55656;BME280;41530;52.382;5.270;2023-04-05T07:47:41;102611.66;;;17.35;39.36
55656;BME280;41530;52.382;5.270;2023-04-05T07:50:08;102614.19;;;17.37;39.20
55656;BME280;41530;52.382;5.270;2023-04-05T07:52:36;102606.22;;;17.37;39.14
55656;BME280;41530;52.382;5.270;2023-04-05T07:55:03;102607.72;;;17.41;39.06
55656;BME280;41530;52.382;5.270;2023-04-05T07:57:30;102606.75;;;17.42;39.10
55656;BME280;41530;52.382;5.270;2023-04-05T07:59:57;102604.94;;;17.42;39.10
55656;BME280;41530;52.382;5.270;2023-04-05T08:02:23;102607.50;;;17.44;39.00
55656;BME280;41530;52.382;5.270;2023-04-05T08:04:50;102608.22;;;17.46;38.97
55656;BME280;41530;52.382;5.270;2023-04-05T08:07:17;102610.78;;;17.48;39.09
55656;BME280;41530;52.382;5.270;2023-04-05T08:09:43;102608.97;;;17.48;38.79
55656;BME280;41530;52.382;5.270;2023-04-05T08:12:10;102607.16;;;17.49;38.85
55656;BME280;41530;52.382;5.270;2023-04-05T08:14:37;102607.81;;;17.52;38.76
55656;BME280;41530;52.382;5.270;2023-04-05T08:17:03;102600.78;;;17.51;38.69
55656;BME280;41530;52.382;5.270;2023-04-05T08:19:30;102611.22;;;17.54;39.29
55656;BME280;41530;52.382;5.270;2023-04-05T08:21:56;102618.00;;;17.58;38.92
55656;BME280;41530;52.382;5.270;2023-04-05T08:24:23;102614.38;;;17.59;38.48
55656;BME280;41530;52.382;5.270;2023-04-05T08:26:50;102612.47;;;17.61;38.71
55656;BME280;41530;52.382;5.270;2023-04-05T08:29:16;102592.78;;;17.51;39.04
55656;BME280;41530;52.382;5.270;2023-04-05T08:31:43;102602.66;;;17.62;38.84
55656;BME280;41530;52.382;5.270;2023-04-05T08:34:10;102603.34;;;17.65;38.69
55656;BME280;41530;52.382;5.270;2023-04-05T08:36:36;102601.53;;;17.66;38.71
55656;BME280;41530;52.382;5.270;2023-04-05T08:39:03;102589.91;;;17.67;38.76
55656;BME280;41530;52.382;5.270;2023-04-05T08:41:34;102599.50;;;17.69;38.14
55656;BME280;41530;52.382;5.270;2023-04-05T08:44:03;102595.03;;;17.70;38.53
55656;BME280;41530;52.382;5.270;2023-04-05T08:46:32;102606.53;;;17.70;38.83
55656;BME280;41530;52.382;5.270;2023-04-05T08:49:04;102598.41;;;17.72;38.29
55656;BME280;41530;52.382;5.270;2023-04-05T08:51:32;102583.75;;;17.66;38.54
55656;BME280;41530;52.382;5.270;2023-04-05T08:53:59;102589.81;;;17.68;38.73
55656;BME280;41530;52.382;5.270;2023-04-05T08:56:32;102587.16;;;17.68;38.19
55656;BME280;41530;52.382;5.270;2023-04-05T08:59:05;102587.75;;;17.72;38.20
55656;BME280;41530;52.382;5.270;2023-04-05T09:01:35;102585.25;;;17.70;38.25
55656;BME280;41530;52.382;5.270;2023-04-05T09:04:08;102591.41;;;17.71;38.03
55656;BME280;41530;52.382;5.270;2023-04-05T09:06:37;102584.38;;;17.70;38.48
55656;BME280;41530;52.382;5.270;2023-04-05T09:09:07;102587.91;;;17.70;38.21
55656;BME280;41530;52.382;5.270;2023-04-05T09:11:34;102575.56;;;17.69;38.64
55656;BME280;41530;52.382;5.270;2023-04-05T09:14:05;102581.72;;;17.70;38.00
55656;BME280;41530;52.382;5.270;2023-04-05T09:16:35;102581.72;;;17.70;38.37
55656;BME280;41530;52.382;5.270;2023-04-05T09:19:03;102585.25;;;17.70;38.54
55656;BME280;41530;52.382;5.270;2023-04-05T09:21:29;102578.91;;;17.71;38.44
55656;BME280;41530;52.382;5.270;2023-04-05T09:23:56;102578.22;;;17.69;38.46
55656;BME280;41530;52.382;5.270;2023-04-05T09:26:24;102578.81;;;17.73;38.28
55656;BME280;41530;52.382;5.270;2023-04-05T09:28:51;102572.53;;;17.74;38.64
55656;BME280;41530;52.382;5.270;2023-04-05T09:31:35;102574.97;;;17.77;38.16
55656;BME280;41530;52.382;5.270;2023-04-05T09:34:04;102572.94;;;17.80;38.81
55656;BME280;41530;52.382;5.270;2023-04-05T09:36:34;102567.53;;;17.82;38.48
55656;BME280;41530;52.382;5.270;2023-04-05T09:39:08;102567.53;;;17.82;38.71
55656;BME280;41530;52.382;5.270;2023-04-05T09:41:35;102570.19;;;17.82;39.08
55656;BME280;41530;52.382;5.270;2023-04-05T09:44:02;102563.16;;;17.81;39.25
55656;BME280;41530;52.382;5.270;2023-04-05T09:46:34;102557.94;;;17.79;38.80
55656;BME280;41530;52.382;5.270;2023-04-05T09:49:03;102565.94;;;17.79;39.15
55656;BME280;41530;52.382;5.270;2023-04-05T09:51:34;102571.03;;;17.83;39.34
55656;BME280;41530;52.382;5.270;2023-04-05T09:54:06;102573.69;;;17.83;38.81
55656;BME280;41530;52.382;5.270;2023-04-05T09:56:35;102564.84;;;17.82;39.08
55656;BME280;41530;52.382;5.270;2023-04-05T09:59:06;102568.38;;;17.83;38.84
55656;BME280;41530;52.382;5.270;2023-04-05T10:01:33;102563.91;;;17.83;39.18
55656;BME280;41530;52.382;5.270;2023-04-05T10:04:00;102568.38;;;17.83;39.78
55656;BME280;41530;52.382;5.270;2023-04-05T10:06:38;102563.75;;;17.85;39.55
55656;BME280;41530;52.382;5.270;2023-04-05T10:09:07;102558.44;;;17.85;39.86
55656;BME280;41530;52.382;5.270;2023-04-05T10:11:35;102538.22;;;17.82;39.86
55656;BME280;41530;52.382;5.270;2023-04-05T10:14:04;102554.69;;;17.87;39.91
55656;BME280;41530;52.382;5.270;2023-04-05T10:16:45;102560.03;;;17.87;39.99
55656;BME280;41530;52.382;5.270;2023-04-05T10:22:31;102547.44;;;17.89;39.35
55656;BME280;41530;52.382;5.270;2023-04-05T10:25:04;102534.88;;;17.91;39.82
55656;BME280;41530;52.382;5.270;2023-04-05T10:27:46;102533.06;;;17.92;39.79
55656;BME280;41530;52.382;5.270;2023-04-05T10:30:15;102533.69;;;17.95;40.78
55656;BME280;41530;52.382;5.270;2023-04-05T10:33:09;102529.94;;;17.98;40.21
55656;BME280;41530;52.382;5.270;2023-04-05T10:40:56;102519.28;;;17.98;40.32
55656;BME280;41530;52.382;5.270;2023-04-05T10:43:24;102516.41;;;18.01;41.07
55656;BME280;41530;52.382;5.270;2023-04-05T10:45:53;102512.78;;;18.02;42.03
55656;BME280;41530;52.382;5.270;2023-04-05T10:51:11;102521.50;;;18.04;41.84
55656;BME280;41530;52.382;5.270;2023-04-05T10:53:40;102520.44;;;18.06;41.75
55656;BME280;41530;52.382;5.270;2023-04-05T10:56:07;102506.25;;;18.06;41.05
55656;BME280;41530;52.382;5.270;2023-04-05T10:58:34;102511.38;;;18.09;41.76
55656;BME280;41530;52.382;5.270;2023-04-05T11:01:02;102505.78;;;18.12;41.81
55656;BME280;41530;52.382;5.270;2023-04-05T11:03:49;102500.47;;;18.12;42.37
55656;BME280;41530;52.382;5.270;2023-04-05T11:08:45;102487.88;;;18.14;43.02
55656;BME280;41530;52.382;5.270;2023-04-05T11:11:15;102479.16;;;18.12;43.01
55656;BME280;41530;52.382;5.270;2023-04-05T11:13:50;102491.41;;;18.14;42.56
55656;BME280;41530;52.382;5.270;2023-04-05T11:16:17;102489.34;;;18.18;42.77
55656;BME280;41530;52.382;5.270;2023-04-05T11:18:48;102486.69;;;18.18;43.34
55656;BME280;41530;52.382;5.270;2023-04-05T11:21:25;102483.91;;;18.20;42.45
55656;BME280;41530;52.382;5.270;2023-04-05T11:24:04;102485.84;;;18.17;40.45
55656;BME280;41530;52.382;5.270;2023-04-05T11:29:14;102488.84;;;18.13;40.83
55656;BME280;41530;52.382;5.270;2023-04-05T11:31:57;102486.19;;;18.13;39.83
55656;BME280;41530;52.382;5.270;2023-04-05T11:34:27;102479.16;;;18.12;41.03
55656;BME280;41530;52.382;5.270;2023-04-05T11:36:54;102486.56;;;18.08;39.65
55656;BME280;41530;52.382;5.270;2023-04-05T11:41:56;102469.72;;;18.08;39.73
55656;BME280;41530;52.382;5.270;2023-04-05T11:44:23;102480.13;;;18.11;41.75
55656;BME280;41530;52.382;5.270;2023-04-05T11:46:53;102471.03;;;18.13;41.71
55656;BME280;41530;52.382;5.270;2023-04-05T11:49:21;102466.47;;;18.15;41.97
55656;BME280;41530;52.382;5.270;2023-04-05T11:51:51;102456.53;;;18.17;41.89
55656;BME280;41530;52.382;5.270;2023-04-05T11:54:31;102462.72;;;18.18;41.77
55656;BME280;41530;52.382;5.270;2023-04-05T11:56:58;102450.38;;;18.17;40.89
55656;BME280;41530;52.382;5.270;2023-04-05T11:59:32;102458.25;;;18.19;40.30
55656;BME280;41530;52.382;5.270;2023-04-05T12:02:04;102445.88;;;18.17;41.74
55656;BME280;41530;52.382;5.270;2023-04-05T12:04:36;102445.03;;;18.17;41.14
55656;BME280;41530;52.382;5.270;2023-04-05T12:07:14;102447.59;;;18.19;41.33
55656;BME280;41530;52.382;5.270;2023-04-05T12:10:05;102443.09;;;18.19;40.96
55656;BME280;41530;52.382;5.270;2023-04-05T12:12:43;102442.38;;;18.17;39.89
55656;BME280;41530;52.382;5.270;2023-04-05T12:15:11;102438.84;;;18.16;41.30
55656;BME280;41530;52.382;5.270;2023-04-05T12:17:47;102436.94;;;18.19;41.76
55656;BME280;41530;52.382;5.270;2023-04-05T12:20:23;102436.72;;;18.22;42.02
55656;BME280;41530;52.382;5.270;2023-04-05T12:22:54;102434.03;;;18.22;42.58
55656;BME280;41530;52.382;5.270;2023-04-05T12:25:22;102428.44;;;18.25;42.21
55656;BME280;41530;52.382;5.270;2023-04-05T12:27:49;102431.00;;;18.26;42.28
55656;BME280;41530;52.382;5.270;2023-04-05T12:30:18;102429.06;;;18.28;42.19
55656;BME280;41530;52.382;5.270;2023-04-05T12:32:50;102427.16;;;18.30;42.85
55656;BME280;41530;52.382;5.270;2023-04-05T12:35:22;102421.81;;;18.30;42.33
55656;BME280;41530;52.382;5.270;2023-04-05T12:37:58;102421.69;;;18.32;42.53
55656;BME280;41530;52.382;5.270;2023-04-05T12:40:26;102424.38;;;18.32;41.79
55656;BME280;41530;52.382;5.270;2023-04-05T12:43:06;102420.84;;;18.31;42.73
55656;BME280;41530;52.382;5.270;2023-04-05T12:45:33;102419.03;;;18.32;43.00
55656;BME280;41530;52.382;5.270;2023-04-05T12:48:14;102413.59;;;18.33;42.36
55656;BME280;41530;52.382;5.270;2023-04-05T12:50:42;102414.31;;;18.35;42.77
55656;BME280;41530;52.382;5.270;2023-04-05T12:53:23;102411.66;;;18.35;42.61
55656;BME280;41530;52.382;5.270;2023-04-05T12:55:54;102405.22;;;18.38;42.69
55656;BME280;41530;52.382;5.270;2023-04-05T12:58:35;102411.41;;;18.38;42.40
55656;BME280;41530;52.382;5.270;2023-04-05T13:01:03;102392.38;;;18.32;42.69
55656;BME280;41530;52.382;5.270;2023-04-05T13:03:29;102405.00;;;18.41;42.79
55656;BME280;41530;52.382;5.270;2023-04-05T13:05:56;102398.56;;;18.43;42.96
55656;BME280;41530;52.382;5.270;2023-04-05T13:08:24;102392.41;;;18.43;42.94
55656;BME280;41530;52.382;5.270;2023-04-05T13:10:52;102393.97;;;18.45;42.96
55656;BME280;41530;52.382;5.270;2023-04-05T13:13:21;102389.28;;;18.49;43.46
55656;BME280;41530;52.382;5.270;2023-04-05T13:15:48;102381.38;;;18.47;43.24
55656;BME280;41530;52.382;5.270;2023-04-05T13:18:17;102382.25;;;18.48;42.69
55656;BME280;41530;52.382;5.270;2023-04-05T13:20:44;102374.25;;;18.48;42.56
55656;BME280;41530;52.382;5.270;2023-04-05T13:23:11;102381.84;;;18.52;42.99
55656;BME280;41530;52.382;5.270;2023-04-05T13:25:39;102383.31;;;18.57;42.92
55656;BME280;41530;52.382;5.270;2023-04-05T13:28:07;102377.03;;;18.58;42.46